Terminal Aerodrome Forecast
Issued by NWS

Home | Current Version | Previous Version | Text Only | Print | Product List | Glossary On
Versions: 1 2 3 4 5 6 7 8 9 10 11 12 13 14 15 16 17 18 19 20
000
FTUS41 KPBZ 261300 AAA
TAFFKL
TAF AMD
KFKL 261308Z 2613/2712 05010KT 1SM -SN BR OVC015
     FM262200 07006KT 3SM -SHSN OVC010
     FM270300 03006KT P6SM BKN008
      AMD LTD TO CLD VIS AND WIND=

USA.gov is the U.S. government's official web portal to all federal, state and local government web resources and services.